Time;durP1;ratioP1;P1;durP2;ratioP2;P2;SDS_P1;SDS_P2;PMS_P1;PMS_P2;Temp;Humidity;BMP_temperature;BMP_pressure;BME280_temperature;BME280_humidity;BME280_pressure;Samples;Min_cycle;Max_cycle;Signal;HPM_P1;HPM_P2
2021/12/06 00:01:41;;;;;;;60.03;28.70;;;;;;;3.82;100.00;101208.00;2610277;36;20083;-72
2021/12/06 00:04:26;;;;;;;62.25;29.33;;;;;;;3.94;100.00;101210.94;2608819;36;20058;-71
2021/12/06 00:06:59;;;;;;;65.00;26.25;;;;;;;3.92;100.00;101211.03;2610811;36;20155;-72
2021/12/06 00:09:29;;;;;;;63.67;28.20;;;;;;;3.97;100.00;101202.78;2610461;36;20824;-72
2021/12/06 00:12:01;;;;;;;67.78;29.45;;;;;;;3.98;100.00;101209.84;2610793;36;20588;-72
2021/12/06 00:14:33;;;;;;;64.97;29.23;;;;;;;3.95;100.00;101212.66;2610277;36;20041;-72
2021/12/06 00:17:05;;;;;;;75.00;30.90;;;;;;;3.97;100.00;101216.09;2611241;36;20708;-72
2021/12/06 00:19:37;;;;;;;63.70;28.52;;;;;;;3.98;100.00;101215.16;2609687;36;20057;-72
2021/12/06 00:22:09;;;;;;;69.47;29.77;;;;;;;3.92;100.00;101210.19;2609119;36;20042;-72
2021/12/06 00:24:39;;;;;;;69.72;29.08;;;;;;;3.90;100.00;101225.34;2610398;36;20610;-72
2021/12/06 00:27:07;;;;;;;73.35;29.08;;;;;;;3.95;100.00;101226.84;2610980;31;20084;-72
2021/12/06 00:29:37;;;;;;;63.33;28.33;;;;;;;3.94;100.00;101232.25;2609426;36;20133;-71
2021/12/06 00:32:06;;;;;;;72.38;29.33;;;;;;;3.96;100.00;101230.34;2610786;36;20034;-72
2021/12/06 00:34:39;;;;;;;65.25;29.50;;;;;;;3.99;100.00;101232.84;2610183;36;20083;-72
2021/12/06 00:37:20;;;;;;;69.95;30.63;;;;;;;3.97;100.00;101224.94;2609469;36;20035;-72
2021/12/06 00:39:50;;;;;;;67.03;28.55;;;;;;;4.18;100.00;101236.22;2609567;36;20188;-72
2021/12/06 00:42:21;;;;;;;69.68;29.67;;;;;;;3.98;100.00;101234.66;2610485;36;20458;-71
2021/12/06 00:44:49;;;;;;;68.30;30.83;;;;;;;3.90;100.00;101241.34;2609643;36;20046;-71
2021/12/06 00:47:18;;;;;;;66.00;28.98;;;;;;;4.00;100.00;101247.88;2609655;36;20034;-72
2021/12/06 00:49:50;;;;;;;68.97;29.57;;;;;;;3.96;100.00;101248.97;2609996;31;20034;-71
2021/12/06 00:52:20;;;;;;;65.70;29.20;;;;;;;3.83;100.00;101252.31;2608903;36;20038;-73
2021/12/06 00:54:49;;;;;;;72.03;29.00;;;;;;;3.88;100.00;101252.06;2610519;36;20483;-72
2021/12/06 00:57:18;;;;;;;72.70;30.27;;;;;;;3.84;100.00;101250.50;2609763;36;20034;-73
2021/12/06 00:59:47;;;;;;;73.65;28.58;;;;;;;3.85;100.00;101253.09;2610428;36;20129;-71
2021/12/06 01:02:18;;;;;;;63.42;28.20;;;;;;;3.95;100.00;101253.47;2610472;36;20034;-72
2021/12/06 01:07:20;;;;;;;73.65;27.73;;;;;;;3.78;100.00;101267.69;2611424;54;20030;-73
2021/12/06 01:09:49;;;;;;;70.88;28.05;;;;;;;3.75;100.00;101269.66;2610194;36;20695;-71
2021/12/06 01:12:18;;;;;;;63.03;27.10;;;;;;;3.88;100.00;101275.19;2609187;36;20030;-73
2021/12/06 01:14:47;;;;;;;68.97;28.40;;;;;;;3.79;100.00;101268.56;2609471;36;20034;-71
2021/12/06 01:17:16;;;;;;;66.03;29.13;;;;;;;3.74;100.00;101268.81;2609610;36;20034;-73
2021/12/06 01:19:45;;;;;;;63.88;27.40;;;;;;;3.70;100.00;101261.91;2610094;36;20080;-71
2021/12/06 01:27:46;;;;;;;66.10;27.38;;;;;;;3.72;100.00;101280.47;2610536;36;20042;-72
2021/12/06 01:41:15;;;;;;;63.97;25.80;;;;;;;3.76;100.00;101274.03;2610528;36;20035;-72
2021/12/06 01:44:12;;;;;;;64.65;26.35;;;;;;;3.87;100.00;101282.28;2607994;36;20126;-72
2021/12/06 01:46:45;;;;;;;62.50;26.25;;;;;;;3.74;100.00;101290.09;2608644;36;20073;-71
2021/12/06 01:49:14;;;;;;;59.85;26.90;;;;;;;3.70;100.00;101291.19;2609277;36;20031;-73
2021/12/06 01:51:44;;;;;;;59.10;25.42;;;;;;;3.72;100.00;101289.31;2610130;36;20162;-73
2021/12/06 01:54:16;;;;;;;60.05;27.55;;;;;;;3.82;100.00;101292.34;2609362;36;20065;-71
2021/12/06 01:56:45;;;;;;;59.88;26.15;;;;;;;3.70;100.00;101299.19;2609293;36;20042;-71
2021/12/06 01:59:15;;;;;;;57.65;24.88;;;;;;;3.67;100.00;101299.34;2610776;36;20485;-73
2021/12/06 02:01:44;;;;;;;;;;;;;;;3.64;100.00;101300.38;2610058;36;20066;-72
2021/12/06 02:04:14;;;;;;;51.92;24.80;;;;;;;3.68;100.00;101295.72;2610490;31;20090;-73
2021/12/06 02:06:44;;;;;;;58.55;25.65;;;;;;;3.68;100.00;101301.94;2609868;36;20194;-73
2021/12/06 02:09:18;;;;;;;59.40;26.55;;;;;;;3.64;100.00;101299.53;2610300;36;20522;-73
2021/12/06 02:11:48;;;;;;;66.43;25.60;;;;;;;3.67;100.00;101300.19;2610897;31;20041;-73
2021/12/06 02:14:28;;;;;;;59.90;25.65;;;;;;;3.69;100.00;101302.78;2610165;36;20041;-73
2021/12/06 02:17:09;;;;;;;61.70;27.08;;;;;;;3.70;100.00;101304.50;2610625;36;20338;-72
2021/12/06 02:19:48;;;;;;;62.33;27.05;;;;;;;3.67;100.00;101302.88;2610270;36;20077;-73
2021/12/06 02:22:23;;;;;;;62.97;26.40;;;;;;;3.57;100.00;101301.63;2610957;36;20038;-72
2021/12/06 02:24:53;;;;;;;69.07;26.95;;;;;;;3.60;100.00;101313.91;2609922;36;20038;-72
2021/12/06 02:27:22;;;;;;;62.80;25.48;;;;;;;3.60;100.00;101305.94;2609282;36;20073;-72
2021/12/06 02:29:53;;;;;;;71.60;28.17;;;;;;;3.75;100.00;101310.44;2609409;36;20079;-73
2021/12/06 02:32:22;;;;;;;67.00;27.17;;;;;;;3.66;100.00;101302.94;2611248;36;20153;-72
2021/12/06 02:34:52;;;;;;;60.88;26.15;;;;;;;3.72;100.00;101321.25;2609309;36;20550;-73
2021/12/06 02:37:27;;;;;;;68.35;26.55;;;;;;;3.72;100.00;101317.75;2611189;36;20428;-72
2021/12/06 02:39:58;;;;;;;61.85;26.20;;;;;;;3.71;100.00;101319.56;2610416;36;20522;-73
2021/12/06 02:42:27;;;;;;;58.17;26.98;;;;;;;3.74;100.00;101322.06;2611203;36;20026;-73
2021/12/06 02:44:56;;;;;;;;;;;;;;;3.78;100.00;101328.91;2609723;36;20091;-72
2021/12/06 02:47:24;;;;;;;63.55;26.73;;;;;;;3.78;100.00;101339.56;2610162;36;19998;-72
2021/12/06 02:49:53;;;;;;;59.53;25.90;;;;;;;3.89;100.00;101343.47;2609589;36;20125;-73
2021/12/06 02:52:25;;;;;;;66.03;26.52;;;;;;;3.94;100.00;101338.78;2610034;36;20146;-73
2021/12/06 02:54:59;;;;;;;72.00;28.80;;;;;;;3.85;100.00;101335.63;2610136;36;20110;-73
2021/12/06 02:57:37;;;;;;;61.58;26.98;;;;;;;3.78;100.00;101339.56;2611058;36;20071;-72
2021/12/06 03:00:09;;;;;;;58.90;26.02;;;;;;;3.86;100.00;101334.72;2609957;31;20055;-72
2021/12/06 03:02:38;;;;;;;61.30;27.80;;;;;;;3.80;100.00;101335.03;2612049;36;20639;-72
2021/12/06 03:05:08;;;;;;;57.95;25.10;;;;;;;3.81;100.00;101334.09;2609242;36;20069;-72
2021/12/06 03:07:39;;;;;;;62.60;27.33;;;;;;;3.72;100.00;101331.91;2611246;36;20038;-74
2021/12/06 03:10:09;;;;;;;60.58;27.67;;;;;;;3.84;100.00;101331.28;2609833;36;20128;-72
2021/12/06 03:12:38;;;;;;;56.97;26.02;;;;;;;3.76;100.00;101330.81;2611067;36;20133;-74
2021/12/06 03:15:08;;;;;;;63.55;27.17;;;;;;;3.82;100.00;101327.81;2610146;36;20137;-74
2021/12/06 03:17:36;;;;;;;61.90;27.20;;;;;;;3.90;100.00;101339.88;2611199;36;20064;-73
2021/12/06 03:20:13;;;;;;;61.72;26.10;;;;;;;3.95;100.00;101349.34;2610598;36;20130;-74
2021/12/06 03:22:46;;;;;;;62.40;25.75;;;;;;;3.96;100.00;101352.84;2611261;36;20076;-72
2021/12/06 03:25:18;;;;;;;52.58;23.92;;;;;;;3.92;100.00;101351.31;2606544;36;20046;-72
2021/12/06 03:27:47;;;;;;;54.20;25.83;;;;;;;3.94;100.00;101352.09;2607214;36;20114;-71
2021/12/06 03:30:16;;;;;;;59.00;26.42;;;;;;;3.94;100.00;101360.06;2606503;36;20038;-72
2021/12/06 03:32:45;;;;;;;51.50;24.85;;;;;;;3.98;100.00;101345.66;2607696;36;20189;-73
2021/12/06 03:35:14;;;;;;;52.40;24.93;;;;;;;3.96;100.00;101345.75;2607372;36;20034;-73
2021/12/06 03:37:45;;;;;;;54.80;25.40;;;;;;;3.89;100.00;101339.03;2610435;36;20030;-74
2021/12/06 03:40:14;;;;;;;51.78;23.85;;;;;;;3.97;100.00;101338.59;2609998;36;20046;-72
2021/12/06 03:42:43;;;;;;;48.50;23.73;;;;;;;3.99;100.00;101339.38;2610579;36;20080;-72
2021/12/06 03:45:13;;;;;;;51.45;24.20;;;;;;;4.11;100.00;101338.72;2609383;36;20065;-73
2021/12/06 03:47:42;;;;;;;55.20;26.00;;;;;;;3.97;100.00;101344.78;2608288;36;20045;-72
2021/12/06 03:50:12;;;;;;;53.22;25.63;;;;;;;3.90;100.00;101345.19;2610098;36;20092;-72
2021/12/06 03:52:41;;;;;;;55.17;23.60;;;;;;;3.94;100.00;101344.94;2610249;36;20065;-73
2021/12/06 03:55:13;;;;;;;55.08;25.13;;;;;;;3.87;100.00;101340.88;2610679;36;20057;-72
2021/12/06 04:00:22;;;;;;;54.65;24.25;;;;;;;4.02;100.00;101339.22;2610249;31;20470;-73
2021/12/06 04:02:50;;;;;;;52.53;24.45;;;;;;;3.97;100.00;101338.59;2610350;36;20054;-73
2021/12/06 04:05:20;;;;;;;52.25;24.95;;;;;;;3.99;100.00;101334.03;2610964;36;20053;-73
2021/12/06 04:07:51;;;;;;;58.30;24.50;;;;;;;3.82;100.00;101335.81;2610200;31;20039;-72
2021/12/06 04:10:25;;;;;;;56.83;25.45;;;;;;;3.86;100.00;101337.38;2609434;36;20038;-71
2021/12/06 04:12:55;;;;;;;57.33;24.13;;;;;;;3.85;100.00;101335.63;2610603;36;20034;-72
2021/12/06 04:15:24;;;;;;;57.92;26.20;;;;;;;3.81;100.00;101343.88;2609339;36;20137;-73
2021/12/06 04:17:54;;;;;;;67.00;27.27;;;;;;;3.67;100.00;101348.13;2609816;36;20069;-71
2021/12/06 04:20:23;;;;;;;61.83;26.27;;;;;;;3.65;100.00;101349.13;2609180;36;20031;-71
2021/12/06 04:22:53;;;;;;;64.82;26.10;;;;;;;3.64;100.00;101350.09;2609607;36;20061;-72
2021/12/06 04:25:28;;;;;;;56.45;25.27;;;;;;;3.70;100.00;101354.25;2610089;36;20083;-71
2021/12/06 04:28:00;;;;;;;68.10;28.25;;;;;;;3.66;100.00;101343.72;2609766;36;20031;-72
2021/12/06 04:30:29;;;;;;;68.28;27.80;;;;;;;3.65;100.00;101343.81;2610649;36;20035;-71
2021/12/06 04:32:58;;;;;;;70.70;27.33;;;;;;;3.58;100.00;101347.72;2610637;36;20042;-71
2021/12/06 04:35:27;;;;;;;74.80;29.58;;;;;;;3.61;100.00;101356.44;2609670;36;20034;-72
2021/12/06 04:37:55;;;;;;;75.60;27.53;;;;;;;3.64;100.00;101363.41;2610414;36;20087;-73
2021/12/06 04:43:08;;;;;;;68.28;27.05;;;;;;;3.60;100.00;101353.84;2611162;54;20042;-70
2021/12/06 04:45:38;;;;;;;82.57;28.92;;;;;;;3.51;100.00;101342.72;2609252;36;20424;-71
2021/12/06 04:48:07;;;;;;;81.10;28.75;;;;;;;3.58;100.00;101339.75;2609783;36;20038;-71
2021/12/06 04:50:36;;;;;;;85.80;29.92;;;;;;;3.57;100.00;101346.03;2609428;36;20123;-71
2021/12/06 04:53:08;;;;;;;82.60;30.17;;;;;;;3.39;100.00;101354.00;2609528;36;20161;-70
2021/12/06 04:55:41;;;;;;;89.07;31.58;;;;;;;3.46;100.00;101360.75;2609370;36;20065;-73
2021/12/06 04:58:17;;;;;;;87.57;29.83;;;;;;;3.50;100.00;101356.09;2611278;31;20538;-71
2021/12/06 05:00:50;;;;;;;78.72;29.75;;;;;;;3.45;100.00;101359.00;2610050;36;20046;-72
2021/12/06 05:03:19;;;;;;;81.95;29.42;;;;;;;3.54;100.00;101357.69;2609704;36;20042;-72
2021/12/06 05:05:50;;;;;;;;;;;;;;;3.64;100.00;101355.41;2609853;36;20046;-72
2021/12/06 05:08:22;;;;;;;93.07;30.42;;;;;;;3.60;100.00;101352.03;2610651;36;20389;-72
2021/12/06 05:10:54;;;;;;;80.43;30.45;;;;;;;3.63;100.00;101356.34;2609683;36;20184;-71
2021/12/06 05:13:26;;;;;;;84.95;30.35;;;;;;;3.68;100.00;101367.59;2610091;36;20034;-71
2021/12/06 05:15:55;;;;;;;79.28;30.25;;;;;;;3.79;100.00;101372.41;2609442;36;20073;-74
2021/12/06 05:18:24;;;;;;;90.03;31.10;;;;;;;3.84;100.00;101373.00;2610260;36;20642;-72
2021/12/06 05:20:56;;;;;;;82.75;30.73;;;;;;;3.82;100.00;101375.75;2608271;36;20043;-74
2021/12/06 05:23:30;;;;;;;85.53;31.42;;;;;;;3.67;100.00;101372.06;2610454;36;20567;-73
2021/12/06 05:26:04;;;;;;;98.65;31.92;;;;;;;3.70;100.00;101371.06;2609971;36;20061;-72
2021/12/06 05:28:46;;;;;;;84.45;30.65;;;;;;;3.72;100.00;101371.84;2610224;36;20661;-72
2021/12/06 05:31:21;;;;;;;85.35;30.80;;;;;;;3.72;100.00;101368.31;2610900;36;20034;-72
2021/12/06 05:34:00;;;;;;;83.10;29.80;;;;;;;3.61;100.00;101363.56;2611152;36;20449;-72
2021/12/06 05:36:33;;;;;;;94.57;31.77;;;;;;;3.54;100.00;101348.84;2610770;36;20038;-71
2021/12/06 05:39:06;;;;;;;92.13;32.70;;;;;;;3.51;100.00;101348.03;2610551;31;20513;-72
2021/12/06 05:41:42;;;;;;;96.53;33.42;;;;;;;3.50;100.00;101343.69;2610453;36;20465;-72
2021/12/06 05:44:18;;;;;;;103.03;35.67;;;;;;;3.51;100.00;101348.03;2608961;36;20042;-72
2021/12/06 05:46:46;;;;;;;104.25;35.03;;;;;;;3.39;100.00;101343.34;2609515;36;20042;-72
2021/12/06 05:49:21;;;;;;;101.70;34.60;;;;;;;3.45;100.00;101355.50;2609518;36;20118;-72
2021/12/06 05:51:50;;;;;;;113.10;37.08;;;;;;;3.36;100.00;101354.16;2609474;36;20085;-73
2021/12/06 05:54:18;;;;;;;106.00;36.28;;;;;;;3.36;100.00;101351.50;2610370;31;20483;-72
2021/12/06 05:56:48;;;;;;;108.53;35.28;;;;;;;3.50;100.00;101362.31;2610486;36;20035;-73
2021/12/06 06:02:01;;;;;;;101.97;34.65;;;;;;;3.56;100.00;101365.59;2609320;36;21015;-73
2021/12/06 06:04:29;;;;;;;117.68;37.40;;;;;;;3.47;100.00;101362.44;2609405;36;20073;-74
2021/12/06 06:06:59;;;;;;;118.32;37.83;;;;;;;3.56;100.00;101370.91;2609747;36;20162;-71
2021/12/06 06:09:28;;;;;;;127.40;38.58;;;;;;;3.48;100.00;101379.28;2610767;36;20046;-74
2021/12/06 06:17:15;;;;;;;118.22;39.20;;;;;;;3.37;100.00;101377.16;2609528;36;20083;-72
2021/12/06 06:19:48;;;;;;;114.53;36.50;;;;;;;3.42;100.00;101385.78;2610469;36;20034;-72
2021/12/06 06:22:16;;;;;;;113.47;36.65;;;;;;;3.37;100.00;101382.47;2610069;36;20138;-72
2021/12/06 06:24:46;;;;;;;109.90;36.55;;;;;;;3.37;100.00;101382.47;2609472;36;20076;-72
2021/12/06 06:27:23;;;;;;;115.05;36.28;;;;;;;3.31;100.00;101388.09;2609403;36;20064;-72
2021/12/06 06:29:52;;;;;;;119.43;38.03;;;;;;;3.34;100.00;101387.94;2609829;36;20566;-71
2021/12/06 06:32:27;;;;;;;112.05;37.58;;;;;;;3.38;100.00;101386.88;2608830;36;20086;-72
2021/12/06 06:34:55;;;;;;;127.20;38.35;;;;;;;3.40;100.00;101386.78;2610112;36;20030;-74
2021/12/06 06:37:24;;;;;;;124.95;38.53;;;;;;;3.47;100.00;101383.72;2609282;36;20099;-72
2021/12/06 06:39:54;;;;;;;118.20;38.28;;;;;;;3.58;100.00;101385.00;2610063;36;20634;-73
2021/12/06 06:42:24;;;;;;;127.63;39.67;;;;;;;3.40;100.00;101386.78;2609192;36;20173;-73
2021/12/06 06:44:53;;;;;;;124.30;40.65;;;;;;;3.34;100.00;101393.28;2610028;36;20157;-71
2021/12/06 06:47:33;;;;;;;129.27;39.92;;;;;;;3.23;100.00;101398.28;2609260;36;20045;-73
2021/12/06 06:50:03;;;;;;;;;;;;;;;3.22;100.00;101397.41;2609492;36;20062;-72
2021/12/06 06:52:31;;;;;;;121.25;37.20;;;;;;;3.20;100.00;101396.63;2609283;31;20448;-71
2021/12/06 06:55:03;;;;;;;119.95;37.83;;;;;;;3.27;100.00;101397.19;2610119;36;20117;-72
2021/12/06 06:57:31;;;;;;;123.55;40.85;;;;;;;3.17;100.00;101403.91;2609513;36;20034;-71
2021/12/06 07:00:00;;;;;;;134.82;40.67;;;;;;;3.12;100.00;101410.31;2610208;31;20042;-73
2021/12/06 07:02:46;;;;;;;120.28;38.30;;;;;;;3.27;100.00;101413.16;2609492;36;20057;-73
2021/12/06 07:05:15;;;;;;;125.57;38.55;;;;;;;3.28;100.00;101409.53;2609823;36;20062;-72
2021/12/06 07:07:44;;;;;;;116.55;39.40;;;;;;;3.33;100.00;101404.88;2610577;36;20035;-73
2021/12/06 07:10:16;;;;;;;115.57;37.42;;;;;;;3.36;100.00;101412.69;2608735;36;20083;-72
2021/12/06 07:12:48;;;;;;;125.88;39.78;;;;;;;3.36;100.00;101412.69;2607399;36;20057;-73
2021/12/06 07:15:19;;;;;;;127.38;40.47;;;;;;;3.31;100.00;101415.59;2608394;36;20089;-74
2021/12/06 07:17:53;;;;;;;120.55;38.70;;;;;;;3.33;100.00;101416.38;2610649;36;20135;-73
2021/12/06 07:20:23;;;;;;;136.57;43.40;;;;;;;3.34;100.00;101411.91;2609599;36;20038;-73
2021/12/06 07:23:09;;;;;;;112.78;38.75;;;;;;;3.39;100.00;101423.19;2608720;36;20061;-75
2021/12/06 07:25:38;;;;;;;112.05;38.45;;;;;;;3.33;100.00;101427.00;2610503;54;20146;-73
2021/12/06 07:28:24;;;;;;;113.47;37.90;;;;;;;3.42;100.00;101428.34;2626625;36;20141;-74
2021/12/06 07:30:58;;;;;;;118.32;38.83;;;;;;;3.45;100.00;101432.66;2618637;36;20035;-73
2021/12/06 07:33:33;;;;;;;117.22;38.15;;;;;;;3.32;100.00;101432.41;2609376;36;20055;-71
2021/12/06 07:36:03;;;;;;;124.20;40.35;;;;;;;3.42;100.00;101428.34;2610362;36;20499;-73
2021/12/06 07:38:46;;;;;;;122.38;40.47;;;;;;;3.34;100.00;101414.56;2612582;31;20041;-73
2021/12/06 07:41:35;;;;;;;121.82;40.38;;;;;;;3.44;100.00;101426.47;2605577;36;20035;-73
2021/12/06 07:44:12;;;;;;;114.10;38.55;;;;;;;3.47;100.00;101415.66;2606555;36;20623;-73
2021/12/06 07:49:37;;;;;;;110.05;37.10;;;;;;;3.51;100.00;101421.72;2610736;36;20500;-73
2021/12/06 11:32:36;;;;;;;105.30;46.75;;;;;;;4.02;100.00;101251.34;2613204;36;20066;-73
2021/12/06 11:35:09;;;;;;;101.55;47.50;;;;;;;4.10;100.00;101259.75;2611368;36;20042;-73
2021/12/06 11:37:40;;;;;;;109.93;51.53;;;;;;;4.06;100.00;101258.19;2611299;36;20053;-72
2021/12/06 11:40:12;;;;;;;117.68;54.45;;;;;;;3.96;100.00;101248.97;2610823;36;20065;-74
2021/12/06 11:42:50;;;;;;;107.75;48.17;;;;;;;4.01;100.00;101238.97;2611237;36;20141;-74
2021/12/06 11:45:33;;;;;;;104.35;48.85;;;;;;;4.00;100.00;101240.75;2612506;31;20053;-73
2021/12/06 11:48:05;;;;;;;110.30;49.00;;;;;;;4.07;100.00;101232.44;2611671;36;20065;-74
2021/12/06 11:50:33;;;;;;;97.78;46.22;;;;;;;4.20;100.00;101229.00;2611850;36;20126;-77
2021/12/06 11:53:06;;;;;;;98.30;46.33;;;;;;;4.27;100.00;101233.97;2612358;36;20034;-74
2021/12/06 11:55:34;;;;;;;93.75;46.75;;;;;;;4.18;100.00;101220.22;2611210;36;20064;-73
2021/12/06 11:58:03;;;;;;;91.43;46.40;;;;;;;4.10;100.00;101221.59;2611810;36;20176;-73
2021/12/06 12:00:33;;;;;;;103.05;45.90;;;;;;;4.20;100.00;101221.00;2610468;36;20463;-73
2021/12/06 12:03:05;;;;;;;85.60;44.03;;;;;;;4.06;100.00;101217.38;2612216;36;21864;-74
2021/12/06 12:05:35;;;;;;;93.30;41.88;;;;;;;4.08;100.00;101205.72;2614517;36;20042;-73
2021/12/06 12:08:11;;;;;;;92.47;44.55;;;;;;;4.06;100.00;101209.41;2612545;36;20161;-74
2021/12/06 12:10:47;;;;;;;90.20;44.58;;;;;;;3.97;100.00;101211.63;2613599;36;20034;-74
2021/12/06 12:13:25;;;;;;;86.57;43.03;;;;;;;3.93;100.00;101209.22;2611703;36;20157;-74
2021/12/06 12:15:54;;;;;;;92.72;42.22;;;;;;;3.83;100.00;101204.41;2609397;36;20061;-74
2021/12/06 12:18:26;;;;;;;83.60;39.78;;;;;;;3.76;100.00;101197.69;2612270;31;20635;-74
2021/12/06 12:20:55;;;;;;;91.97;45.78;;;;;;;3.65;100.00;101184.97;2610260;36;20163;-73
2021/12/06 12:23:25;;;;;;;84.82;40.38;;;;;;;3.70;100.00;101187.38;2612902;31;20126;-73
2021/12/06 12:26:00;;;;;;;82.30;42.42;;;;;;;3.75;100.00;101179.13;2610266;36;20150;-75
2021/12/06 12:28:35;;;;;;;81.82;41.05;;;;;;;3.79;100.00;101181.53;2611859;36;20567;-73
2021/12/06 12:31:06;;;;;;;81.05;39.65;;;;;;;3.75;100.00;101177.31;2610847;31;20057;-73
2021/12/06 12:33:37;;;;;;;70.30;37.92;;;;;;;3.60;100.00;101183.50;2612702;31;21146;-73
2021/12/06 12:36:10;;;;;;;73.72;39.10;;;;;;;3.47;100.00;101177.97;2611190;36;20110;-73
2021/12/06 12:38:40;;;;;;;77.30;40.80;;;;;;;3.38;100.00;101174.00;2611493;36;20823;-73
2021/12/06 12:41:11;;;;;;;74.00;38.50;;;;;;;3.40;100.00;101172.13;2610590;36;20562;-75
2021/12/06 12:43:43;;;;;;;71.25;36.03;;;;;;;3.37;100.00;101163.44;2610562;36;20165;-73
2021/12/06 12:46:14;;;;;;;74.53;36.22;;;;;;;3.24;100.00;101149.94;2611258;36;20137;-73
2021/12/06 12:51:18;;;;;;;76.55;33.83;;;;;;;3.27;100.00;101141.81;2609539;36;20094;-74
2021/12/06 12:53:56;;;;;;;85.70;37.08;;;;;;;3.22;100.00;101143.84;2610958;36;20419;-76
2021/12/06 12:56:27;;;;;;;87.47;37.70;;;;;;;3.27;100.00;101147.13;2611643;36;20043;-73
2021/12/06 12:58:56;;;;;;;83.03;37.63;;;;;;;3.27;100.00;101133.84;2610982;36;20031;-74
2021/12/06 13:01:27;;;;;;;90.90;37.90;;;;;;;3.27;100.00;101134.69;2611294;36;20150;-74
2021/12/06 13:03:58;;;;;;;94.03;38.83;;;;;;;3.27;100.00;101144.47;2611514;36;20038;-74
2021/12/06 13:06:32;;;;;;;87.53;37.25;;;;;;;3.29;100.00;101131.94;2608929;36;20122;-75
2021/12/06 13:09:03;;;;;;;98.82;37.25;;;;;;;3.29;100.00;101129.28;2609926;36;20445;-74
2021/12/06 13:11:34;;;;;;;88.75;37.70;;;;;;;3.31;100.00;101122.06;2611197;36;20030;-75
2021/12/06 13:14:03;;;;;;;91.30;35.13;;;;;;;3.38;100.00;101122.59;2610405;36;20520;-74
2021/12/06 13:16:44;;;;;;;83.07;37.95;;;;;;;3.36;100.00;101109.38;2610032;36;20413;-74
2021/12/06 13:19:19;;;;;;;77.22;33.88;;;;;;;3.42;100.00;101111.69;2610376;36;20142;-74
2021/12/06 13:22:12;;;;;;;82.75;35.50;;;;;;;3.41;100.00;101090.50;2609829;36;20039;-75
2021/12/06 13:25:02;;;;;;;90.32;35.90;;;;;;;3.47;100.00;101084.84;2610886;31;20545;-72
2021/12/06 13:27:40;;;;;;;79.63;33.85;;;;;;;3.44;100.00;101077.03;2609489;36;20103;-73
2021/12/06 13:30:21;;;;;;;72.07;31.40;;;;;;;3.38;100.00;101072.06;2609625;36;20161;-73
2021/12/06 13:32:58;;;;;;;76.57;31.90;;;;;;;3.26;100.00;101065.59;2610625;36;20041;-72
2021/12/06 13:35:39;;;;;;;70.13;32.63;;;;;;;3.26;100.00;101066.44;2606960;36;20038;-73
2021/12/06 13:38:23;;;;;;;69.38;30.83;;;;;;;3.21;100.00;101052.56;2608261;36;20160;-73
2021/12/06 13:41:12;;;;;;;77.80;32.22;;;;;;;3.12;100.00;101050.38;2606124;36;20552;-74
2021/12/06 13:43:45;;;;;;;67.00;28.47;;;;;;;3.20;100.00;101049.97;2604352;36;20133;-73
2021/12/06 13:46:24;;;;;;;60.30;27.30;;;;;;;3.29;100.00;101039.66;2605672;36;20303;-73
2021/12/06 13:51:42;;;;;;;66.13;30.45;;;;;;;3.19;100.00;101027.81;2608778;36;20050;-74
2021/12/06 13:54:16;;;;;;;64.00;29.05;;;;;;;3.27;100.00;101030.09;2608389;36;20045;-73
2021/12/06 13:56:55;;;;;;;66.97;30.40;;;;;;;3.19;100.00;101021.66;2609626;36;20133;-73
2021/12/06 13:59:27;;;;;;;70.10;30.47;;;;;;;3.19;100.00;101011.88;2609375;36;20142;-75
2021/12/06 14:02:03;;;;;;;65.18;26.20;;;;;;;3.25;100.00;101010.66;2608658;36;20448;-75
2021/12/06 14:07:21;;;;;;;58.83;25.90;;;;;;;3.31;100.00;101000.56;2611094;36;20041;-75
2021/12/06 14:09:52;;;;;;;61.75;27.63;;;;;;;3.27;100.00;100999.00;2610407;36;20130;-73
2021/12/06 14:12:23;;;;;;;58.05;26.80;;;;;;;3.32;100.00;100988.09;2611699;36;20035;-74
2021/12/06 14:14:55;;;;;;;55.97;25.33;;;;;;;3.33;100.00;100981.84;2610362;36;20471;-73
2021/12/06 14:17:25;;;;;;;58.63;25.13;;;;;;;3.21;100.00;100988.72;2611194;36;20134;-74
2021/12/06 14:19:54;;;;;;;61.67;26.70;;;;;;;3.21;100.00;100983.41;2610244;36;20365;-73
2021/12/06 14:22:24;;;;;;;;;;;;;;;3.15;100.00;100979.28;2609288;36;20805;-73
2021/12/06 14:24:55;;;;;;;56.90;26.90;;;;;;;3.22;100.00;100978.94;2610091;36;19958;-74
2021/12/06 14:27:29;;;;;;;60.97;28.02;;;;;;;3.21;100.00;100969.22;2609555;36;20621;-76
2021/12/06 14:29:57;;;;;;;57.55;27.30;;;;;;;3.21;100.00;100972.75;2610012;36;20030;-73
2021/12/06 14:32:26;;;;;;;61.83;28.38;;;;;;;3.10;100.00;100949.41;2611056;36;20712;-74
2021/12/06 14:34:59;;;;;;;51.35;23.40;;;;;;;3.22;100.00;100944.34;2611156;36;20909;-75
2021/12/06 14:37:29;;;;;;;50.45;23.83;;;;;;;3.23;100.00;100943.41;2610656;36;20508;-73
2021/12/06 14:40:00;;;;;;;;;;;;;;;3.14;100.00;100932.34;2611329;36;20059;-73
2021/12/06 14:42:30;;;;;;;46.35;22.70;;;;;;;3.16;100.00;100926.94;2609912;36;19974;-73
2021/12/06 14:45:02;;;;;;;51.53;23.60;;;;;;;3.23;100.00;100932.78;2611035;36;20249;-72
2021/12/06 14:47:35;;;;;;;46.03;22.90;;;;;;;3.19;100.00;100944.53;2610863;36;20423;-74
2021/12/06 14:50:08;;;;;;;47.60;21.63;;;;;;;3.14;100.00;100932.34;2607782;31;20153;-74
2021/12/06 14:52:41;;;;;;;53.15;23.70;;;;;;;3.18;100.00;100926.84;2608811;31;20899;-74
2021/12/06 14:55:37;;;;;;;51.13;22.08;;;;;;;3.23;100.00;100928.31;2607784;36;20038;-75
2021/12/06 14:58:09;;;;;;;47.70;22.92;;;;;;;3.19;100.00;100921.44;2609393;36;20055;-74
2021/12/06 15:00:41;;;;;;;52.42;21.90;;;;;;;3.18;100.00;100929.50;2609280;36;20034;-73
2021/12/06 15:03:13;;;;;;;43.88;21.45;;;;;;;3.19;100.00;100920.59;2625686;36;20046;-75
2021/12/06 15:05:46;;;;;;;47.92;20.85;;;;;;;3.22;100.00;100923.91;2609583;36;20420;-73
2021/12/06 15:08:22;;;;;;;45.22;21.70;;;;;;;3.08;100.00;100921.22;2609807;36;20030;-74
2021/12/06 15:10:56;;;;;;;47.88;23.70;;;;;;;3.04;100.00;100915.19;2610933;36;20520;-74
2021/12/06 15:13:26;;;;;;;43.17;20.58;;;;;;;3.00;100.00;100918.09;2611459;31;20143;-75
2021/12/06 15:15:55;;;;;;;;;;;;;;;2.99;100.00;100919.91;2610342;36;20035;-74
2021/12/06 15:18:27;;;;;;;42.20;19.20;;;;;;;2.98;100.00;100910.22;2628781;36;20562;-75
2021/12/06 15:20:57;;;;;;;49.33;22.98;;;;;;;2.95;100.00;100921.03;2610214;36;20031;-76
2021/12/06 15:23:29;;;;;;;46.88;22.63;;;;;;;2.95;100.00;100923.69;2610142;36;20154;-74
2021/12/06 15:26:05;;;;;;;39.15;18.77;;;;;;;2.87;100.00;100916.13;2608735;36;20038;-74
2021/12/06 15:28:37;;;;;;;40.55;19.45;;;;;;;2.88;100.00;100920.50;2609264;36;20042;-74
2021/12/06 15:31:06;;;;;;;38.60;19.92;;;;;;;2.81;100.00;100916.47;2609001;36;20038;-74
2021/12/06 15:33:53;;;;;;;41.17;20.45;;;;;;;2.75;100.00;100901.72;2607691;36;20489;-73
2021/12/06 15:36:24;;;;;;;38.03;19.95;;;;;;;2.58;100.00;100904.44;2602722;31;20517;-73
2021/12/06 15:38:55;;;;;;;45.25;20.25;;;;;;;2.57;100.00;100902.72;2607010;36;20034;-73
2021/12/06 15:41:35;;;;;;;41.42;20.42;;;;;;;2.55;100.00;100899.31;2606633;36;20856;-73
2021/12/06 15:44:07;;;;;;;39.40;21.08;;;;;;;2.44;100.00;100895.44;2606181;36;20054;-75
2021/12/06 15:46:42;;;;;;;36.72;20.63;;;;;;;2.47;100.00;100896.19;2607354;36;20082;-73
2021/12/06 15:49:11;;;;;;;39.15;20.67;;;;;;;2.42;100.00;100889.31;2606692;36;20034;-74
2021/12/06 15:51:48;;;;;;;37.55;19.23;;;;;;;2.40;100.00;100891.22;2607547;36;20043;-73
2021/12/06 15:54:21;;;;;;;36.50;18.92;;;;;;;2.38;100.00;100881.63;2608041;31;20060;-73
2021/12/06 15:57:01;;;;;;;40.60;21.15;;;;;;;2.36;100.00;100872.88;2610224;36;20475;-72